Time;durP1;ratioP1;P1;durP2;ratioP2;P2;SDS_P1;SDS_P2;PMS_P1;PMS_P2;Temp;Humidity;BMP_temperature;BMP_pressure;BME280_temperature;BME280_humidity;BME280_pressure;Samples;Min_cycle;Max_cycle;Signal;HPM_P1;HPM_P2
2020/12/23 00:00:55;;;;;;;7.83;4.43;;;12.30;99.90;;;;;;470964;252;28972;-74
2020/12/23 00:02:56;;;;;;;5.60;3.33;;;12.30;99.90;;;;;;470869;252;29116;-73
2020/12/23 00:04:58;;;;;;;4.67;3.30;;;12.30;99.90;;;;;;470914;252;29071;-75
2020/12/23 00:06:59;;;;;;;4.80;3.43;;;12.30;99.90;;;;;;470918;252;28726;-73
2020/12/23 00:09:00;;;;;;;10.30;4.00;;;12.30;99.90;;;;;;470958;252;28248;-74
2020/12/23 00:11:01;;;;;;;13.97;4.30;;;12.30;99.90;;;;;;470881;252;28528;-74
2020/12/23 00:13:03;;;;;;;3.40;3.10;;;12.30;99.90;;;;;;470869;252;28383;-73
2020/12/23 00:15:05;;;;;;;4.10;3.50;;;;;;;;;;470979;252;28403;-74
2020/12/23 00:17:06;;;;;;;3.33;3.00;;;12.40;99.90;;;;;;470923;252;27380;-74
2020/12/23 00:19:08;;;;;;;3.60;3.30;;;12.40;99.90;;;;;;470977;252;28394;-75
2020/12/23 00:21:09;;;;;;;3.73;3.37;;;12.40;99.90;;;;;;470980;252;28110;-73
2020/12/23 00:23:11;;;;;;;3.60;2.87;;;12.40;99.90;;;;;;470956;252;29301;-73
2020/12/23 00:25:13;;;;;;;3.43;3.13;;;12.40;99.90;;;;;;471065;252;28993;-73
2020/12/23 00:27:14;;;;;;;3.13;2.80;;;12.40;99.90;;;;;;470997;251;29047;-77
2020/12/23 00:29:15;;;;;;;7.80;3.90;;;12.40;99.90;;;;;;469862;252;28461;-74
2020/12/23 00:31:16;;;;;;;5.60;3.87;;;12.40;99.90;;;;;;469863;252;28381;-74
2020/12/23 00:33:18;;;;;;;6.27;3.40;;;12.40;99.90;;;;;;469869;252;28149;-73
2020/12/23 00:35:19;;;;;;;3.60;2.77;;;12.40;99.90;;;;;;469894;250;28423;-74
2020/12/23 00:37:20;;;;;;;4.43;3.00;;;12.40;99.90;;;;;;469761;252;28373;-76
2020/12/23 00:39:21;;;;;;;6.60;3.60;;;12.30;99.90;;;;;;469686;252;28870;-73
2020/12/23 00:41:23;;;;;;;3.50;3.20;;;12.30;99.90;;;;;;469723;252;28268;-75
2020/12/23 00:43:24;;;;;;;2.90;2.70;;;12.40;99.90;;;;;;469632;252;28729;-73
2020/12/23 00:45:25;;;;;;;3.20;2.90;;;12.40;99.90;;;;;;469650;252;28177;-73
2020/12/23 00:47:26;;;;;;;3.47;3.17;;;12.40;99.90;;;;;;469691;252;29734;-73
2020/12/23 00:49:28;;;;;;;3.37;2.97;;;12.40;99.90;;;;;;469656;252;28729;-73
2020/12/23 00:51:29;;;;;;;3.40;3.10;;;12.40;99.90;;;;;;469665;252;28981;-74
2020/12/23 00:53:30;;;;;;;3.60;3.23;;;12.40;99.90;;;;;;469723;252;28619;-73
2020/12/23 00:55:31;;;;;;;4.70;3.00;;;12.40;99.90;;;;;;469672;252;28303;-73
2020/12/23 00:57:33;;;;;;;3.23;2.93;;;12.40;99.90;;;;;;469459;252;28180;-73
2020/12/23 00:59:34;;;;;;;3.30;3.00;;;12.40;99.90;;;;;;469615;252;28548;-73
2020/12/23 01:01:35;;;;;;;3.23;2.93;;;12.40;99.90;;;;;;469642;252;28374;-74
2020/12/23 01:03:36;;;;;;;3.37;3.07;;;12.40;99.90;;;;;;469706;252;28202;-75
2020/12/23 01:05:38;;;;;;;3.90;2.93;;;12.40;99.90;;;;;;469615;252;28264;-73
2020/12/23 01:07:39;;;;;;;3.20;3.00;;;12.40;99.90;;;;;;469654;252;28253;-73
2020/12/23 01:09:40;;;;;;;2.90;2.70;;;12.40;99.90;;;;;;469657;252;28375;-73
2020/12/23 01:11:43;;;;;;;3.73;3.00;;;;;;;;;;469671;252;28972;-74
2020/12/23 01:13:44;;;;;;;5.90;3.03;;;12.40;99.90;;;;;;469722;253;26991;-74
2020/12/23 01:15:45;;;;;;;3.00;2.70;;;12.40;99.90;;;;;;469686;252;28368;-73
2020/12/23 01:17:46;;;;;;;3.53;2.97;;;12.40;99.90;;;;;;469652;252;28398;-74
2020/12/23 01:19:48;;;;;;;3.23;2.93;;;12.40;99.90;;;;;;469627;249;28471;-76
2020/12/23 01:21:49;;;;;;;9.37;2.90;;;12.40;99.90;;;;;;469570;252;28522;-74
2020/12/23 01:23:50;;;;;;;2.93;2.37;;;12.40;99.90;;;;;;469533;252;28513;-74
2020/12/23 01:25:51;;;;;;;2.80;2.40;;;12.40;99.90;;;;;;469580;250;29020;-73
2020/12/23 01:27:53;;;;;;;3.50;2.70;;;12.40;99.90;;;;;;469702;252;28912;-75
2020/12/23 01:29:54;;;;;;;2.73;2.57;;;12.40;99.90;;;;;;469720;252;28634;-75
2020/12/23 01:31:55;;;;;;;2.67;2.40;;;12.40;99.90;;;;;;469622;252;28596;-74
2020/12/23 01:33:56;;;;;;;3.60;2.40;;;12.40;99.90;;;;;;469690;252;28269;-74
2020/12/23 01:35:58;;;;;;;2.93;2.73;;;12.40;99.90;;;;;;469687;252;28128;-73
2020/12/23 01:37:59;;;;;;;2.47;2.33;;;12.40;99.90;;;;;;469659;252;28510;-75
2020/12/23 01:40:01;;;;;;;2.10;2.00;;;;;;;;;;469676;252;28376;-74
2020/12/23 01:42:02;;;;;;;8.40;2.57;;;12.40;99.90;;;;;;469648;253;27763;-75
2020/12/23 01:44:04;;;;;;;2.37;2.27;;;12.40;99.90;;;;;;469742;252;28632;-73
2020/12/23 01:46:05;;;;;;;2.50;2.30;;;12.40;99.90;;;;;;469755;252;28444;-75
2020/12/23 01:48:06;;;;;;;2.83;2.33;;;12.40;99.90;;;;;;469673;252;28478;-73
2020/12/23 01:50:08;;;;;;;2.50;2.30;;;12.40;99.90;;;;;;469679;252;28402;-73
2020/12/23 01:52:09;;;;;;;2.43;2.27;;;12.30;99.90;;;;;;469916;252;28517;-77
2020/12/23 01:54:12;;;;;;;2.03;1.90;;;12.40;99.90;;;;;;469894;252;28014;-73
2020/12/23 01:56:11;;;;;;;2.57;2.37;;;12.40;99.90;;;;;;469791;252;28908;-74
2020/12/23 01:58:13;;;;;;;2.53;2.33;;;12.40;99.90;;;;;;469897;252;28558;-73
2020/12/23 02:00:14;;;;;;;4.07;2.50;;;12.40;99.90;;;;;;469842;252;28879;-73
2020/12/23 02:02:15;;;;;;;3.03;2.83;;;12.40;99.90;;;;;;469889;250;28274;-77
2020/12/23 02:04:16;;;;;;;3.30;2.60;;;12.40;99.90;;;;;;469843;252;28351;-73
2020/12/23 02:06:18;;;;;;;2.73;2.53;;;12.40;99.90;;;;;;469829;252;28209;-73
2020/12/23 02:08:19;;;;;;;3.50;2.80;;;12.40;99.90;;;;;;469828;252;28388;-73
2020/12/23 02:10:20;;;;;;;2.97;2.77;;;12.40;99.90;;;;;;469753;252;28367;-74
2020/12/23 02:12:21;;;;;;;2.97;2.77;;;12.40;99.90;;;;;;469821;252;28330;-76
2020/12/23 02:14:23;;;;;;;2.90;2.70;;;12.40;99.90;;;;;;469737;252;28110;-74
2020/12/23 02:16:24;;;;;;;4.53;3.20;;;12.40;99.90;;;;;;469720;252;28197;-74
2020/12/23 02:18:25;;;;;;;6.80;2.73;;;12.40;99.90;;;;;;469690;252;29126;-74
2020/12/23 02:20:26;;;;;;;2.80;2.60;;;12.40;99.90;;;;;;469627;252;28407;-74
2020/12/23 02:22:28;;;;;;;2.83;2.63;;;12.40;99.90;;;;;;469740;252;28970;-77
2020/12/23 02:24:29;;;;;;;2.50;2.30;;;12.40;99.90;;;;;;469732;252;28561;-74
2020/12/23 02:26:31;;;;;;;2.80;2.60;;;;;;;;;;469659;252;28387;-76
2020/12/23 02:28:33;;;;;;;3.33;2.67;;;12.30;99.90;;;;;;469668;253;27205;-73
2020/12/23 02:30:34;;;;;;;2.80;2.60;;;12.40;99.90;;;;;;469690;252;29042;-74
2020/12/23 02:32:35;;;;;;;2.57;2.37;;;12.40;99.90;;;;;;469766;252;28021;-74
2020/12/23 02:34:36;;;;;;;2.80;2.60;;;12.40;99.90;;;;;;469736;252;28422;-74
2020/12/23 02:36:38;;;;;;;2.43;2.23;;;12.40;99.90;;;;;;469671;252;29612;-74
2020/12/23 02:38:39;;;;;;;3.37;2.47;;;12.40;99.90;;;;;;469717;252;28553;-73
2020/12/23 02:40:40;;;;;;;5.20;2.37;;;12.40;99.90;;;;;;469711;252;29074;-75
2020/12/23 02:42:42;;;;;;;2.30;2.10;;;12.40;99.90;;;;;;469750;252;28174;-75
2020/12/23 02:44:43;;;;;;;2.50;2.30;;;12.40;99.90;;;;;;469755;252;28352;-74
2020/12/23 02:46:44;;;;;;;2.40;2.20;;;12.40;99.90;;;;;;469706;252;28845;-74
2020/12/23 02:48:45;;;;;;;3.03;2.43;;;12.40;99.90;;;;;;469769;252;28143;-73
2020/12/23 02:50:47;;;;;;;2.10;2.00;;;12.40;99.90;;;;;;469717;252;28582;-73
2020/12/23 02:52:48;;;;;;;2.33;2.17;;;12.40;99.90;;;;;;469702;252;28271;-73
2020/12/23 02:54:49;;;;;;;2.50;2.00;;;12.40;99.90;;;;;;469689;247;28514;-73
2020/12/23 02:56:50;;;;;;;2.30;2.20;;;12.40;99.90;;;;;;469669;252;28187;-73
2020/12/23 02:58:52;;;;;;;1.90;1.80;;;12.50;99.90;;;;;;469655;252;30044;-74
2020/12/23 03:00:53;;;;;;;2.60;2.40;;;12.50;99.90;;;;;;469685;252;28960;-73
2020/12/23 03:02:54;;;;;;;2.27;2.17;;;12.50;99.90;;;;;;469664;252;29484;-74
2020/12/23 03:04:55;;;;;;;2.00;1.90;;;12.40;99.90;;;;;;469699;252;28190;-79
2020/12/23 03:06:57;;;;;;;2.07;1.87;;;12.50;99.90;;;;;;469669;252;28515;-74
2020/12/23 03:08:58;;;;;;;1.90;1.80;;;12.50;99.90;;;;;;469676;250;28452;-75
2020/12/23 03:10:59;;;;;;;2.37;2.27;;;12.50;99.90;;;;;;469643;252;28320;-73
2020/12/23 03:13:00;;;;;;;4.53;1.97;;;12.50;99.90;;;;;;469647;252;28301;-74
2020/12/23 03:15:02;;;;;;;2.30;1.90;;;12.50;99.90;;;;;;469642;250;28296;-74
2020/12/23 03:17:03;;;;;;;3.63;2.20;;;12.50;99.90;;;;;;469693;252;28410;-73
2020/12/23 03:19:04;;;;;;;4.00;2.20;;;12.50;99.90;;;;;;469668;252;28501;-73
2020/12/23 03:21:05;;;;;;;5.77;2.17;;;12.50;99.90;;;;;;469683;252;28217;-73
2020/12/23 03:23:07;;;;;;;3.40;1.97;;;12.50;99.90;;;;;;469686;252;28793;-73
2020/12/23 03:25:08;;;;;;;2.27;2.10;;;12.50;99.90;;;;;;469712;252;28619;-75
2020/12/23 03:27:09;;;;;;;1.83;1.73;;;12.40;99.90;;;;;;469719;252;28558;-73
2020/12/23 03:29:10;;;;;;;3.23;1.93;;;12.40;99.90;;;;;;469717;249;28282;-74
2020/12/23 03:31:12;;;;;;;1.80;1.70;;;12.50;99.90;;;;;;469672;252;28124;-73
2020/12/23 03:33:13;;;;;;;2.30;1.73;;;12.40;99.90;;;;;;469775;250;28807;-73
2020/12/23 03:35:14;;;;;;;1.70;1.60;;;12.40;99.90;;;;;;469841;252;28287;-74
2020/12/23 03:37:15;;;;;;;1.83;1.73;;;12.40;99.90;;;;;;469851;252;28100;-73
2020/12/23 03:39:17;;;;;;;2.00;1.40;;;12.40;99.90;;;;;;469849;250;28332;-73
2020/12/23 03:41:18;;;;;;;1.50;1.40;;;12.40;99.90;;;;;;469756;252;28252;-73
2020/12/23 03:43:19;;;;;;;1.53;1.43;;;12.40;99.90;;;;;;469762;252;28599;-74
2020/12/23 03:45:22;;;;;;;1.43;1.10;;;;;;;;;;469750;252;29309;-73
2020/12/23 03:47:23;;;;;;;1.40;1.30;;;12.40;99.90;;;;;;469746;253;27181;-74
2020/12/23 03:49:24;;;;;;;1.20;1.20;;;12.50;99.90;;;;;;469723;252;28519;-73
2020/12/23 03:51:25;;;;;;;2.60;1.80;;;12.50;99.90;;;;;;469663;252;28419;-73
2020/12/23 03:53:27;;;;;;;5.13;1.40;;;12.50;99.90;;;;;;469712;252;28581;-75
2020/12/23 03:55:28;;;;;;;1.63;1.17;;;12.40;99.90;;;;;;469705;252;28543;-73
2020/12/23 03:57:29;;;;;;;6.10;1.47;;;12.40;99.90;;;;;;469647;252;29426;-74
2020/12/23 03:59:30;;;;;;;3.90;1.07;;;12.40;99.90;;;;;;469690;252;29472;-74
2020/12/23 04:01:32;;;;;;;1.23;1.13;;;12.40;99.90;;;;;;469625;252;28666;-74
2020/12/23 04:03:33;;;;;;;1.17;1.17;;;12.40;99.90;;;;;;469684;252;28184;-73
2020/12/23 04:05:34;;;;;;;1.00;0.90;;;12.40;99.90;;;;;;469705;252;28606;-73
2020/12/23 04:07:35;;;;;;;0.90;0.80;;;12.40;99.90;;;;;;469708;252;28101;-74
2020/12/23 04:09:37;;;;;;;0.90;0.90;;;12.40;99.90;;;;;;469707;252;28342;-77
2020/12/23 04:11:39;;;;;;;0.90;0.90;;;;;;;;;;469560;252;28034;-73
2020/12/23 04:13:40;;;;;;;2.70;1.20;;;12.40;99.90;;;;;;469706;253;27667;-73
2020/12/23 04:15:41;;;;;;;2.53;1.00;;;12.30;99.90;;;;;;469707;252;28036;-74
2020/12/23 04:17:43;;;;;;;2.10;1.20;;;12.30;99.90;;;;;;469619;252;28278;-75
2020/12/23 04:19:44;;;;;;;1.37;1.17;;;12.30;99.90;;;;;;469667;247;28470;-73
2020/12/23 04:21:45;;;;;;;1.60;0.97;;;12.30;99.90;;;;;;469599;250;28341;-74
2020/12/23 04:23:48;;;;;;;2.10;0.90;;;;;;;;;;469546;252;28219;-74
2020/12/23 04:25:49;;;;;;;1.13;0.93;;;12.30;99.90;;;;;;469724;253;27332;-73
2020/12/23 04:27:50;;;;;;;5.77;1.53;;;12.40;99.90;;;;;;469736;252;28575;-74
2020/12/23 04:29:51;;;;;;;2.03;1.10;;;12.40;99.90;;;;;;469675;252;28306;-73
2020/12/23 04:31:53;;;;;;;0.80;0.80;;;12.40;99.90;;;;;;469684;251;28414;-73
2020/12/23 04:33:54;;;;;;;2.10;1.00;;;12.40;99.90;;;;;;469687;252;28463;-75
2020/12/23 04:35:55;;;;;;;2.97;0.90;;;12.40;99.90;;;;;;469667;250;28271;-74
2020/12/23 04:37:56;;;;;;;0.80;0.80;;;12.40;99.90;;;;;;469758;252;28164;-74
2020/12/23 04:39:58;;;;;;;1.43;1.00;;;12.40;99.90;;;;;;469653;252;28283;-74
2020/12/23 04:42:00;;;;;;;2.40;0.90;;;12.40;99.90;;;;;;469659;252;28388;-73
2020/12/23 04:44:01;;;;;;;2.40;1.10;;;12.30;99.90;;;;;;469680;252;28360;-73
2020/12/23 04:46:03;;;;;;;1.00;1.00;;;12.30;99.90;;;;;;469684;252;28190;-74
2020/12/23 04:48:04;;;;;;;1.37;1.07;;;12.30;99.90;;;;;;469731;252;28269;-74
2020/12/23 04:50:05;;;;;;;0.80;0.80;;;12.40;99.90;;;;;;469663;252;28229;-75
2020/12/23 04:52:07;;;;;;;0.70;0.70;;;12.40;99.90;;;;;;469733;252;28247;-73
2020/12/23 04:54:08;;;;;;;1.83;0.80;;;12.40;99.90;;;;;;469690;250;28371;-74
2020/12/23 04:56:09;;;;;;;1.10;0.90;;;12.40;99.90;;;;;;469719;252;28375;-74
2020/12/23 04:58:10;;;;;;;2.50;1.07;;;12.40;99.90;;;;;;469797;252;28733;-73
2020/12/23 05:00:11;;;;;;;0.70;0.70;;;12.40;99.90;;;;;;469833;252;28876;-75
2020/12/23 05:02:13;;;;;;;0.80;0.80;;;12.30;99.90;;;;;;469840;252;28842;-73
2020/12/23 05:04:14;;;;;;;0.80;0.80;;;12.30;99.90;;;;;;469823;252;28167;-74
2020/12/23 05:06:15;;;;;;;2.50;0.90;;;12.30;99.90;;;;;;469783;252;28191;-76
2020/12/23 05:08:16;;;;;;;0.80;0.80;;;12.30;99.90;;;;;;469783;252;28182;-73
2020/12/23 05:10:18;;;;;;;0.77;0.77;;;12.30;99.90;;;;;;469667;252;28371;-75
2020/12/23 05:12:19;;;;;;;0.93;0.93;;;12.30;99.90;;;;;;469659;252;28149;-73
2020/12/23 05:14:20;;;;;;;1.00;1.00;;;12.30;99.90;;;;;;469620;247;28191;-74
2020/12/23 05:16:21;;;;;;;0.90;0.90;;;12.40;99.90;;;;;;469642;252;28268;-74
2020/12/23 05:18:23;;;;;;;1.33;1.13;;;12.40;99.90;;;;;;469708;252;28160;-73
2020/12/23 05:20:24;;;;;;;0.90;0.90;;;12.40;99.90;;;;;;469646;252;28386;-74
2020/12/23 05:22:25;;;;;;;1.10;1.10;;;12.30;99.90;;;;;;469616;252;29305;-73
2020/12/23 05:24:26;;;;;;;1.73;1.10;;;12.30;99.90;;;;;;469673;252;28643;-73
2020/12/23 05:26:28;;;;;;;1.80;1.10;;;12.30;99.90;;;;;;469657;252;29573;-74
2020/12/23 05:28:29;;;;;;;1.20;1.10;;;12.30;99.90;;;;;;469705;247;28330;-73
2020/12/23 05:30:30;;;;;;;1.37;1.27;;;12.30;99.90;;;;;;469670;252;28280;-73
2020/12/23 05:32:31;;;;;;;1.70;1.60;;;12.30;99.90;;;;;;469696;252;28198;-73
2020/12/23 05:34:33;;;;;;;1.90;1.80;;;12.30;99.90;;;;;;469693;252;28171;-72
2020/12/23 05:36:34;;;;;;;1.30;1.30;;;12.30;99.90;;;;;;469627;252;28313;-74
2020/12/23 05:38:35;;;;;;;1.80;1.60;;;12.30;99.90;;;;;;469635;252;28418;-73
2020/12/23 05:40:36;;;;;;;1.53;1.47;;;12.30;99.90;;;;;;469670;252;28303;-73
2020/12/23 05:42:38;;;;;;;1.30;1.30;;;12.30;99.90;;;;;;469731;252;28233;-76
2020/12/23 05:44:39;;;;;;;1.50;1.40;;;12.30;99.90;;;;;;469743;252;28397;-74
2020/12/23 05:46:40;;;;;;;1.73;1.63;;;12.30;99.90;;;;;;469719;252;28674;-74
2020/12/23 05:48:41;;;;;;;1.93;1.83;;;12.30;99.90;;;;;;469751;252;28675;-73
2020/12/23 05:50:43;;;;;;;1.70;1.60;;;12.30;99.90;;;;;;469737;252;28643;-74
2020/12/23 05:52:44;;;;;;;4.00;1.47;;;12.30;99.90;;;;;;469733;252;28426;-74
2020/12/23 05:54:45;;;;;;;1.70;1.60;;;12.20;99.90;;;;;;469746;252;28198;-73
2020/12/23 05:56:46;;;;;;;4.23;1.90;;;12.20;99.90;;;;;;469759;252;28271;-73
2020/12/23 05:58:49;;;;;;;4.77;1.90;;;12.30;99.90;;;;;;469746;252;28238;-74
2020/12/23 06:00:50;;;;;;;2.23;2.00;;;12.20;99.90;;;;;;469682;252;28391;-74
2020/12/23 06:02:51;;;;;;;2.57;2.37;;;12.20;99.90;;;;;;469696;250;28870;-74
2020/12/23 06:04:52;;;;;;;2.67;2.47;;;12.20;99.90;;;;;;470614;252;28794;-74
2020/12/23 06:06:54;;;;;;;2.80;2.50;;;12.10;99.90;;;;;;470913;252;29447;-74
2020/12/23 06:08:56;;;;;;;2.33;2.13;;;;;;;;;;470948;252;28864;-74
2020/12/23 06:10:57;;;;;;;2.30;2.10;;;12.10;99.90;;;;;;470917;252;27313;-73
2020/12/23 06:12:59;;;;;;;2.50;2.30;;;12.10;99.90;;;;;;470957;252;28492;-74
2020/12/23 06:15:00;;;;;;;2.83;2.47;;;12.10;99.90;;;;;;470965;252;29160;-74
2020/12/23 06:17:02;;;;;;;6.30;2.80;;;12.10;99.90;;;;;;470979;252;29013;-73
2020/12/23 06:19:03;;;;;;;3.50;2.90;;;12.00;99.90;;;;;;470899;252;29088;-74
2020/12/23 06:21:05;;;;;;;3.47;2.67;;;12.00;99.90;;;;;;470922;252;28646;-73
2020/12/23 06:23:06;;;;;;;2.93;2.63;;;12.00;99.90;;;;;;470996;252;28364;-73
2020/12/23 06:25:07;;;;;;;3.80;3.30;;;12.10;99.90;;;;;;471115;252;29087;-73
2020/12/23 06:27:08;;;;;;;3.60;3.30;;;12.00;99.90;;;;;;471111;252;28975;-74
2020/12/23 06:29:10;;;;;;;4.17;3.73;;;12.00;99.90;;;;;;471012;252;28649;-74
2020/12/23 06:31:11;;;;;;;3.40;3.07;;;12.00;99.90;;;;;;470898;252;28831;-75
2020/12/23 06:33:12;;;;;;;6.57;3.50;;;12.10;99.90;;;;;;470927;252;28320;-74
2020/12/23 06:35:13;;;;;;;5.47;3.40;;;12.10;99.90;;;;;;470924;252;28257;-74
2020/12/23 06:37:15;;;;;;;3.80;3.47;;;12.10;99.90;;;;;;470948;252;28300;-74
2020/12/23 06:39:16;;;;;;;3.90;3.17;;;12.10;99.90;;;;;;470954;252;28480;-74
2020/12/23 06:41:17;;;;;;;5.33;4.00;;;12.10;99.90;;;;;;470916;252;28430;-76
2020/12/23 06:43:18;;;;;;;6.13;3.63;;;12.20;99.90;;;;;;470974;252;28274;-74
2020/12/23 06:45:20;;;;;;;5.20;3.80;;;12.20;99.90;;;;;;470925;252;28294;-74
2020/12/23 06:47:21;;;;;;;4.80;4.10;;;12.20;99.90;;;;;;470905;252;28538;-74
2020/12/23 06:49:22;;;;;;;7.13;3.60;;;12.10;99.90;;;;;;470976;252;28513;-74
2020/12/23 06:51:23;;;;;;;4.00;3.57;;;12.10;99.90;;;;;;470915;252;28811;-75
2020/12/23 06:53:25;;;;;;;7.57;3.90;;;12.10;99.90;;;;;;471022;252;29186;-74
2020/12/23 06:55:26;;;;;;;4.03;3.63;;;12.10;99.90;;;;;;471055;252;28946;-74
2020/12/23 06:57:27;;;;;;;5.87;4.10;;;12.10;99.90;;;;;;471016;252;28176;-72
2020/12/23 06:59:29;;;;;;;4.60;3.23;;;12.10;99.90;;;;;;470994;252;28124;-74
2020/12/23 07:01:31;;;;;;;4.53;3.37;;;12.10;99.90;;;;;;470940;252;28289;-76
2020/12/23 07:03:32;;;;;;;4.17;3.73;;;12.00;99.90;;;;;;470967;252;28606;-74
2020/12/23 07:05:33;;;;;;;5.23;3.40;;;12.00;99.90;;;;;;470962;252;29039;-74
2020/12/23 07:07:34;;;;;;;6.03;4.10;;;12.00;99.90;;;;;;470801;252;28888;-71
2020/12/23 07:09:36;;;;;;;4.43;3.30;;;12.10;99.90;;;;;;470738;252;28294;-75
2020/12/23 07:11:37;;;;;;;6.90;3.67;;;12.10;99.90;;;;;;470936;252;28289;-76
2020/12/23 07:13:38;;;;;;;5.10;3.50;;;12.10;99.90;;;;;;471001;252;28388;-74
2020/12/23 07:15:39;;;;;;;4.80;3.30;;;12.10;99.90;;;;;;474526;247;28408;-74
2020/12/23 07:17:41;;;;;;;4.83;2.80;;;12.00;99.90;;;;;;481020;245;28158;-74
2020/12/23 07:19:42;;;;;;;5.93;3.40;;;12.00;99.90;;;;;;467781;245;28167;-75
2020/12/23 07:21:43;;;;;;;3.97;3.53;;;12.00;99.90;;;;;;468249;247;28827;-74
2020/12/23 07:23:44;;;;;;;3.83;3.30;;;12.00;99.90;;;;;;468237;254;28798;-74
2020/12/23 07:25:47;;;;;;;3.50;3.13;;;12.00;99.90;;;;;;468253;254;28851;-77
2020/12/23 07:27:47;;;;;;;3.60;3.30;;;12.00;99.90;;;;;;468174;254;28638;-74
2020/12/23 07:29:48;;;;;;;5.97;3.27;;;12.00;99.90;;;;;;468239;253;28368;-74
2020/12/23 07:31:49;;;;;;;4.27;2.80;;;12.00;99.90;;;;;;468251;254;28296;-75
2020/12/23 07:33:51;;;;;;;16.60;3.47;;;12.00;99.90;;;;;;468327;254;28222;-74
2020/12/23 07:35:52;;;;;;;4.17;3.27;;;12.00;99.90;;;;;;468412;254;28272;-74
2020/12/23 07:37:53;;;;;;;3.53;3.23;;;12.00;99.90;;;;;;468391;254;28451;-77
2020/12/23 07:39:54;;;;;;;4.33;2.97;;;11.90;99.90;;;;;;468415;254;28346;-77
2020/12/23 07:41:56;;;;;;;3.50;3.20;;;12.00;99.90;;;;;;468305;254;28560;-74
2020/12/23 07:43:57;;;;;;;4.00;2.90;;;11.90;99.90;;;;;;468357;254;28148;-74
2020/12/23 07:45:58;;;;;;;5.00;3.50;;;11.90;99.90;;;;;;468244;254;28917;-74
2020/12/23 07:47:59;;;;;;;3.60;3.30;;;11.90;99.90;;;;;;468179;254;28885;-74
2020/12/23 07:50:01;;;;;;;4.60;3.50;;;11.90;99.90;;;;;;468213;254;28614;-73
2020/12/23 07:52:02;;;;;;;4.07;3.67;;;11.90;99.90;;;;;;468220;253;28521;-75
2020/12/23 07:54:03;;;;;;;4.57;3.30;;;11.90;99.90;;;;;;468291;253;28044;-74
2020/12/23 07:56:08;;;;;;;3.70;3.40;;;11.90;99.90;;;;;;468203;254;28502;-74
2020/12/23 07:58:06;;;;;;;4.00;3.23;;;11.90;99.90;;;;;;468020;254;28416;-74
2020/12/23 08:00:07;;;;;;;3.40;3.10;;;11.90;99.90;;;;;;468198;249;28366;-74
2020/12/23 08:02:08;;;;;;;6.90;3.50;;;12.00;99.90;;;;;;468222;254;28310;-74
2020/12/23 08:04:09;;;;;;;4.40;3.23;;;12.00;99.90;;;;;;468270;254;28641;-76
2020/12/23 08:06:11;;;;;;;4.23;3.13;;;12.00;99.90;;;;;;468190;254;28190;-74
2020/12/23 08:08:12;;;;;;;5.10;3.60;;;12.00;99.90;;;;;;468229;254;28321;-74
2020/12/23 08:10:13;;;;;;;4.90;3.67;;;12.00;99.90;;;;;;468235;254;29144;-74
2020/12/23 08:12:16;;;;;;;3.90;3.30;;;;;;;;;;468247;254;29006;-75
2020/12/23 08:14:17;;;;;;;3.43;3.13;;;12.00;99.90;;;;;;468234;254;27266;-74
2020/12/23 08:16:18;;;;;;;3.93;3.57;;;11.90;99.90;;;;;;468228;254;28289;-75
2020/12/23 08:18:19;;;;;;;3.10;2.80;;;11.90;99.90;;;;;;468226;253;28153;-74
2020/12/23 08:20:21;;;;;;;4.00;2.97;;;12.00;99.90;;;;;;468819;252;29563;-76
2020/12/23 08:22:22;;;;;;;5.27;4.10;;;11.90;99.90;;;;;;470262;252;28534;-73
2020/12/23 08:24:23;;;;;;;3.40;3.10;;;12.00;99.90;;;;;;469790;252;28447;-78
2020/12/23 08:26:24;;;;;;;4.20;3.37;;;11.90;99.90;;;;;;469631;252;28899;-78
2020/12/23 08:28:26;;;;;;;3.60;3.30;;;12.00;99.90;;;;;;468786;252;28952;-76
2020/12/23 08:30:27;;;;;;;3.47;3.10;;;11.90;99.90;;;;;;468429;254;28055;-76
2020/12/23 08:32:28;;;;;;;4.03;3.10;;;11.90;99.90;;;;;;468358;254;28738;-76
2020/12/23 08:34:30;;;;;;;3.90;3.50;;;11.90;99.90;;;;;;468331;254;28808;-76
2020/12/23 08:36:31;;;;;;;3.20;2.90;;;11.90;99.90;;;;;;468109;254;28992;-76
2020/12/23 08:38:32;;;;;;;2.87;2.57;;;11.90;99.90;;;;;;468060;254;29011;-78
2020/12/23 08:40:33;;;;;;;3.70;2.83;;;12.00;99.90;;;;;;468208;254;28207;-76
2020/12/23 08:42:35;;;;;;;3.90;2.97;;;12.00;99.90;;;;;;468326;254;28531;-75
2020/12/23 08:44:36;;;;;;;4.23;3.33;;;12.00;99.90;;;;;;468319;254;28194;-76
2020/12/23 08:46:37;;;;;;;4.40;3.53;;;12.00;99.90;;;;;;468282;254;28173;-76
2020/12/23 08:48:38;;;;;;;3.93;3.40;;;12.00;99.90;;;;;;468302;254;28290;-76
2020/12/23 08:50:40;;;;;;;3.33;3.00;;;12.00;99.90;;;;;;468394;254;28027;-76
2020/12/23 08:52:41;;;;;;;3.50;3.20;;;12.00;99.90;;;;;;468418;254;28310;-76
2020/12/23 08:54:43;;;;;;;5.23;3.30;;;12.00;99.90;;;;;;468482;254;28249;-75
2020/12/23 08:56:43;;;;;;;5.40;3.83;;;12.00;99.90;;;;;;468438;254;28695;-76
2020/12/23 08:58:45;;;;;;;3.23;3.00;;;12.00;99.90;;;;;;468429;254;29013;-76
2020/12/23 09:00:47;;;;;;;4.40;4.00;;;;;;;;;;468374;254;28996;-75
2020/12/23 09:02:48;;;;;;;3.50;3.20;;;12.00;99.90;;;;;;468509;254;27219;-77
2020/12/23 09:04:50;;;;;;;3.70;3.10;;;12.00;99.90;;;;;;468453;254;28091;-76
2020/12/23 09:06:52;;;;;;;3.70;3.20;;;12.10;99.90;;;;;;468451;249;28316;-76
2020/12/23 09:08:52;;;;;;;3.97;3.57;;;12.00;99.90;;;;;;468393;248;28459;-76
2020/12/23 09:10:53;;;;;;;8.30;3.47;;;12.00;99.90;;;;;;468528;254;28050;-76
2020/12/23 09:12:55;;;;;;;3.20;3.00;;;12.00;99.90;;;;;;468625;254;28575;-75
2020/12/23 09:14:59;;;;;;;3.07;2.80;;;12.10;99.90;;;;;;468613;254;29250;-76
2020/12/23 09:16:59;;;;;;;3.40;3.10;;;12.10;99.90;;;;;;468411;254;28311;-76
2020/12/23 09:19:02;;;;;;;4.07;3.07;;;12.10;99.90;;;;;;468444;254;28521;-75
2020/12/23 09:21:03;;;;;;;2.80;2.60;;;12.10;99.90;;;;;;468438;254;28302;-76
2020/12/23 09:23:05;;;;;;;3.33;3.10;;;12.10;99.90;;;;;;468464;254;28915;-76
2020/12/23 09:25:06;;;;;;;4.10;3.03;;;12.20;99.90;;;;;;468433;254;28395;-76
2020/12/23 09:27:07;;;;;;;3.40;3.10;;;12.20;99.90;;;;;;468409;254;28600;-76
2020/12/23 09:29:09;;;;;;;2.97;2.77;;;12.20;99.90;;;;;;468460;254;28916;-75
2020/12/23 09:31:10;;;;;;;3.20;2.70;;;12.20;99.90;;;;;;468458;254;28853;-76
2020/12/23 09:33:11;;;;;;;3.33;3.00;;;12.30;99.90;;;;;;468494;254;28288;-76
2020/12/23 09:35:13;;;;;;;3.17;2.90;;;12.30;99.90;;;;;;468480;254;28512;-78
2020/12/23 09:37:14;;;;;;;5.50;3.27;;;12.30;99.90;;;;;;468461;254;28357;-76
2020/12/23 09:39:15;;;;;;;4.67;4.03;;;12.30;99.90;;;;;;468506;254;28397;-76
2020/12/23 09:41:16;;;;;;;5.03;3.77;;;12.30;99.90;;;;;;468442;254;28209;-76
2020/12/23 09:43:20;;;;;;;6.37;3.27;;;12.20;99.90;;;;;;468560;254;28091;-75
2020/12/23 09:45:21;;;;;;;3.50;3.20;;;12.30;99.90;;;;;;468561;254;28770;-76
2020/12/23 09:47:25;;;;;;;4.23;3.80;;;12.30;99.90;;;;;;468562;254;28391;-76
2020/12/23 09:49:26;;;;;;;5.33;3.77;;;12.40;99.90;;;;;;468538;254;28459;-76
2020/12/23 09:51:27;;;;;;;3.10;2.83;;;12.40;99.90;;;;;;468435;254;29017;-76
2020/12/23 09:53:29;;;;;;;3.50;3.20;;;12.40;99.90;;;;;;468530;254;28885;-76
2020/12/23 09:55:30;;;;;;;3.70;3.10;;;12.40;99.90;;;;;;468544;254;28368;-76
2020/12/23 09:57:34;;;;;;;2.83;2.63;;;;;;;;;;468701;254;28902;-76
2020/12/23 09:59:35;;;;;;;3.00;2.70;;;12.40;99.90;;;;;;468671;254;27663;-76
2020/12/23 10:01:37;;;;;;;3.23;2.40;;;12.50;99.90;;;;;;468617;254;28654;-76
2020/12/23 10:03:38;;;;;;;3.00;2.50;;;12.50;99.90;;;;;;468624;254;28218;-75
2020/12/23 10:05:39;;;;;;;6.17;2.73;;;12.60;99.90;;;;;;468685;254;28187;-77
2020/12/23 10:07:40;;;;;;;2.70;2.50;;;12.60;99.90;;;;;;468668;254;28287;-76
2020/12/23 10:09:42;;;;;;;2.63;2.43;;;12.60;99.90;;;;;;468576;254;28699;-75
2020/12/23 10:11:43;;;;;;;3.87;2.73;;;12.60;99.90;;;;;;468439;254;28374;-75
2020/12/23 10:13:44;;;;;;;3.53;2.60;;;12.50;99.90;;;;;;468522;254;28419;-76
2020/12/23 10:15:45;;;;;;;3.40;2.43;;;12.60;99.90;;;;;;468478;254;29348;-76
2020/12/23 10:17:47;;;;;;;2.63;2.30;;;12.70;99.90;;;;;;468506;254;28850;-76
2020/12/23 10:19:48;;;;;;;3.40;2.47;;;12.70;99.90;;;;;;468471;254;28747;-76
2020/12/23 10:21:49;;;;;;;2.57;2.37;;;12.80;99.90;;;;;;468411;254;28154;-76
2020/12/23 10:23:51;;;;;;;2.53;2.33;;;12.80;99.90;;;;;;468427;254;28466;-76
2020/12/23 10:25:52;;;;;;;4.83;2.80;;;12.80;99.90;;;;;;468419;254;28529;-76
2020/12/23 10:27:53;;;;;;;2.70;2.40;;;12.90;99.90;;;;;;468472;254;28314;-76
2020/12/23 10:29:54;;;;;;;2.60;2.40;;;12.90;99.90;;;;;;468356;254;28387;-81
2020/12/23 10:31:57;;;;;;;2.50;2.30;;;12.90;99.90;;;;;;468340;254;28121;-78
2020/12/23 10:33:59;;;;;;;3.10;2.80;;;12.80;99.90;;;;;;468258;254;28438;-76